createdAt,value
2018-09-22T00:00:01.166Z,12.37
2018-09-22T00:00:34.684Z,12.37
2018-09-22T00:01:08.347Z,12.37
2018-09-22T00:01:41.888Z,12.44
2018-09-22T00:02:15.409Z,12.44
2018-09-22T00:02:48.905Z,12.44
2018-09-22T00:03:22.427Z,12.44
2018-09-22T00:03:55.901Z,12.44
2018-09-22T00:04:29.419Z,12.44
2018-09-22T00:05:03.028Z,12.44
2018-09-22T00:05:36.553Z,12.37
2018-09-22T00:06:10.129Z,12.37
2018-09-22T00:06:43.651Z,12.37
2018-09-22T00:07:17.197Z,12.44
2018-09-22T00:07:50.868Z,12.44
2018-09-22T00:08:24.408Z,12.50
2018-09-22T00:08:57.917Z,12.50
2018-09-22T00:09:31.414Z,12.50
2018-09-22T00:10:05.671Z,12.50
2018-09-22T00:10:39.244Z,12.44
2018-09-22T00:11:12.748Z,12.44
2018-09-22T00:11:46.289Z,12.37
2018-09-22T00:12:19.825Z,12.31
2018-09-22T00:12:53.335Z,12.31
2018-09-22T00:13:26.868Z,12.25
2018-09-22T00:14:00.333Z,12.25
2018-09-22T00:14:34.298Z,12.25
2018-09-22T00:15:07.879Z,12.25
2018-09-22T00:15:41.455Z,12.19
2018-09-22T00:16:14.993Z,12.19
2018-09-22T00:16:48.595Z,12.19
2018-09-22T00:17:22.149Z,12.25
2018-09-22T00:17:55.715Z,12.25
2018-09-22T00:18:29.219Z,12.25
2018-09-22T00:19:02.751Z,12.25
2018-09-22T00:19:36.302Z,12.25
2018-09-22T00:20:09.860Z,12.25
2018-09-22T00:20:43.420Z,12.25
2018-09-22T00:21:16.978Z,12.25
2018-09-22T00:21:50.621Z,12.25
2018-09-22T00:22:24.109Z,12.25
2018-09-22T00:22:57.618Z,12.25
2018-09-22T00:23:31.140Z,12.25
2018-09-22T00:24:04.706Z,12.19
2018-09-22T00:24:38.203Z,12.19
2018-09-22T00:25:11.696Z,12.19
2018-09-22T00:25:45.235Z,12.25
2018-09-22T00:26:18.758Z,12.25
2018-09-22T00:26:52.261Z,12.31
2018-09-22T00:27:25.794Z,12.31
2018-09-22T00:27:59.307Z,12.37
2018-09-22T00:28:32.813Z,12.37
2018-09-22T00:29:06.399Z,12.44
2018-09-22T00:29:39.900Z,12.37
2018-09-22T00:30:13.471Z,12.37
2018-09-22T00:30:47.013Z,12.31
2018-09-22T00:31:20.515Z,12.25
2018-09-22T00:31:54.028Z,12.19
2018-09-22T00:32:27.647Z,12.13
2018-09-22T00:33:01.180Z,12.06
2018-09-22T00:33:34.671Z,12.00
2018-09-22T00:34:08.168Z,11.94
2018-09-22T00:34:41.670Z,11.88
2018-09-22T00:35:15.188Z,11.81
2018-09-22T00:35:48.784Z,11.75
2018-09-22T00:36:22.326Z,11.69
2018-09-22T00:36:55.807Z,11.69
2018-09-22T00:37:29.296Z,11.63
2018-09-22T00:38:02.814Z,11.63
2018-09-22T00:38:36.494Z,11.56
2018-09-22T00:39:10.524Z,11.56
2018-09-22T00:39:44.143Z,11.56
2018-09-22T00:40:17.688Z,11.50
2018-09-22T00:40:51.246Z,11.50
2018-09-22T00:41:24.778Z,11.50
2018-09-22T00:41:58.304Z,11.50
2018-09-22T00:42:31.996Z,11.50
2018-09-22T00:43:06.075Z,11.50
2018-09-22T00:43:39.578Z,11.50
2018-09-22T00:44:13.064Z,11.50
2018-09-22T00:44:46.539Z,11.50
2018-09-22T00:45:20.090Z,11.50
2018-09-22T00:45:53.641Z,11.50
2018-09-22T00:46:27.152Z,11.50
2018-09-22T00:47:00.686Z,11.50
2018-09-22T00:47:34.202Z,11.50
2018-09-22T00:48:07.724Z,11.50
2018-09-22T00:48:41.212Z,11.50
2018-09-22T00:49:14.734Z,11.50
2018-09-22T00:49:48.262Z,11.50
2018-09-22T00:50:21.800Z,11.50
2018-09-22T00:50:55.350Z,11.50
2018-09-22T00:51:28.922Z,11.50
2018-09-22T00:52:02.453Z,11.50
2018-09-22T00:52:35.973Z,11.44
2018-09-22T00:53:09.476Z,11.44
2018-09-22T00:53:43.032Z,11.44
2018-09-22T00:54:16.528Z,11.44
2018-09-22T00:54:50.024Z,11.38
2018-09-22T00:55:23.577Z,11.38
2018-09-22T00:55:57.175Z,11.38
2018-09-22T00:56:30.691Z,11.38
2018-09-22T00:57:04.264Z,11.31
2018-09-22T00:57:37.796Z,11.31
2018-09-22T00:58:11.324Z,11.31
2018-09-22T00:58:44.842Z,11.31
2018-09-22T00:59:18.332Z,11.31
2018-09-22T00:59:51.834Z,11.31
2018-09-22T01:00:25.432Z,11.31
2018-09-22T01:00:58.998Z,11.31
2018-09-22T01:01:32.614Z,11.31
2018-09-22T01:02:06.418Z,11.31
2018-09-22T01:02:39.934Z,11.31
2018-09-22T01:03:13.414Z,11.31
2018-09-22T01:03:46.921Z,11.31
2018-09-22T01:04:20.416Z,11.31
2018-09-22T01:04:53.948Z,11.31
2018-09-22T01:05:27.489Z,11.31
2018-09-22T01:06:01.004Z,11.38
2018-09-22T01:06:34.530Z,11.38
2018-09-22T01:07:08.028Z,11.38
2018-09-22T01:07:41.552Z,11.38
2018-09-22T01:08:15.068Z,11.38
2018-09-22T01:08:48.623Z,11.38
2018-09-22T01:09:22.104Z,11.38
2018-09-22T01:09:55.600Z,11.31
2018-09-22T01:10:29.120Z,11.31
2018-09-22T01:11:02.710Z,11.31
2018-09-22T01:11:36.721Z,11.31
2018-09-22T01:12:10.249Z,11.31
2018-09-22T01:12:43.745Z,11.31
2018-09-22T01:13:17.228Z,11.31
2018-09-22T01:13:50.764Z,11.31
2018-09-22T01:14:24.280Z,11.31
2018-09-22T01:14:57.805Z,11.31
2018-09-22T01:15:31.353Z,11.31
2018-09-22T01:16:04.948Z,11.31
2018-09-22T01:16:38.466Z,11.31
2018-09-22T01:17:11.988Z,11.31
2018-09-22T01:17:45.506Z,11.31
2018-09-22T01:18:18.994Z,11.31
2018-09-22T01:18:52.504Z,11.31
2018-09-22T01:19:26.256Z,11.31
2018-09-22T01:19:59.772Z,11.25
2018-09-22T01:20:33.287Z,11.31
2018-09-22T01:21:06.825Z,11.31
2018-09-22T01:21:40.385Z,11.31
2018-09-22T01:22:13.939Z,11.38
2018-09-22T01:22:47.468Z,11.50
2018-09-22T01:23:20.996Z,11.56
2018-09-22T01:23:54.486Z,11.56
2018-09-22T01:24:28.002Z,11.56
2018-09-22T01:25:01.495Z,11.56
2018-09-22T01:25:35.032Z,11.56
2018-09-22T01:26:08.592Z,11.50
2018-09-22T01:26:42.104Z,11.50
2018-09-22T01:27:15.599Z,11.50
2018-09-22T01:27:49.094Z,11.50
2018-09-22T01:28:22.884Z,11.50
2018-09-22T01:28:56.357Z,11.44
2018-09-22T01:29:29.857Z,11.50
2018-09-22T01:30:03.439Z,11.50
2018-09-22T01:30:36.939Z,11.50
2018-09-22T01:31:10.536Z,11.50
2018-09-22T01:31:44.752Z,11.50
2018-09-22T01:32:18.341Z,11.56
2018-09-22T01:32:51.820Z,11.63
2018-09-22T01:33:25.288Z,11.63
2018-09-22T01:33:58.832Z,11.69
2018-09-22T01:34:32.338Z,11.75
2018-09-22T01:35:05.906Z,11.81
2018-09-22T01:35:39.434Z,11.88
2018-09-22T01:36:12.936Z,11.88
2018-09-22T01:36:46.457Z,11.94
2018-09-22T01:37:19.986Z,11.94
2018-09-22T01:37:53.496Z,11.94
2018-09-22T01:38:27.032Z,11.94
2018-09-22T01:39:00.550Z,12.00
2018-09-22T01:39:34.077Z,11.94
2018-09-22T01:40:07.611Z,11.94
2018-09-22T01:40:41.120Z,11.94
2018-09-22T01:41:14.666Z,11.94
2018-09-22T01:41:48.204Z,12.00
2018-09-22T01:42:21.679Z,12.00
2018-09-22T01:42:55.234Z,12.00
2018-09-22T01:43:28.736Z,12.00
2018-09-22T01:44:02.284Z,11.94
2018-09-22T01:44:35.824Z,11.94
2018-09-22T01:45:09.346Z,11.94
2018-09-22T01:45:42.891Z,11.94
2018-09-22T01:46:16.429Z,11.88
2018-09-22T01:46:49.940Z,11.88
2018-09-22T01:47:23.514Z,11.88
2018-09-22T01:47:57.045Z,11.88
2018-09-22T01:48:30.537Z,11.81
2018-09-22T01:49:04.067Z,11.81
2018-09-22T01:49:37.548Z,11.81
2018-09-22T01:50:11.072Z,11.75
2018-09-22T01:50:44.606Z,11.75
2018-09-22T01:51:18.155Z,11.69
2018-09-22T01:51:51.652Z,11.75
2018-09-22T01:52:25.163Z,11.69
2018-09-22T01:52:58.646Z,11.69
2018-09-22T01:53:32.202Z,11.69
2018-09-22T01:54:05.486Z,11.63
2018-09-22T01:54:39.032Z,11.63
2018-09-22T01:55:12.605Z,11.63
2018-09-22T01:55:46.104Z,11.63
2018-09-22T01:56:19.624Z,11.63
2018-09-22T01:56:53.170Z,11.69
2018-09-22T01:57:26.750Z,11.69
2018-09-22T01:58:00.264Z,11.69
2018-09-22T01:58:33.768Z,11.75
2018-09-22T01:59:07.283Z,11.75
2018-09-22T01:59:40.772Z,11.75
2018-09-22T02:00:14.288Z,11.75
2018-09-22T02:00:47.809Z,11.75
2018-09-22T02:01:21.333Z,11.69
2018-09-22T02:01:54.853Z,11.69
2018-09-22T02:02:28.356Z,11.69
2018-09-22T02:03:01.864Z,11.69
2018-09-22T02:03:35.388Z,11.69
2018-09-22T02:04:08.880Z,11.69
2018-09-22T02:04:42.396Z,11.75
2018-09-22T02:05:15.925Z,11.75
2018-09-22T02:05:49.455Z,11.75
2018-09-22T02:06:22.966Z,11.75
2018-09-22T02:06:56.468Z,11.75
2018-09-22T02:07:29.944Z,11.75
2018-09-22T02:08:03.513Z,11.75
2018-09-22T02:08:37.013Z,11.81
2018-09-22T02:09:11.017Z,11.81
2018-09-22T02:09:44.522Z,11.81
2018-09-22T02:10:18.059Z,11.81
2018-09-22T02:10:51.559Z,11.88
2018-09-22T02:11:25.184Z,11.88
2018-09-22T02:11:58.787Z,11.94
2018-09-22T02:12:32.278Z,12.00
2018-09-22T02:13:05.809Z,12.06
2018-09-22T02:13:39.333Z,12.06
2018-09-22T02:14:12.830Z,12.06
2018-09-22T02:14:46.347Z,12.06
2018-09-22T02:15:19.879Z,12.06
2018-09-22T02:15:53.363Z,12.00
2018-09-22T02:16:26.910Z,11.94
2018-09-22T02:17:00.414Z,11.94
2018-09-22T02:17:33.993Z,11.88
2018-09-22T02:18:07.507Z,11.81
2018-09-22T02:18:40.989Z,11.81
2018-09-22T02:19:14.521Z,11.81
2018-09-22T02:19:48.025Z,11.75
2018-09-22T02:20:21.507Z,11.75
2018-09-22T02:20:55.045Z,11.75
2018-09-22T02:21:28.600Z,11.75
2018-09-22T02:22:02.124Z,11.75
2018-09-22T02:22:35.657Z,11.75
2018-09-22T02:23:09.173Z,11.75
2018-09-22T02:23:42.755Z,11.75
2018-09-22T02:24:16.279Z,11.75
2018-09-22T02:24:49.795Z,11.75
2018-09-22T02:25:23.329Z,11.75
2018-09-22T02:25:56.829Z,11.81
2018-09-22T02:26:30.353Z,11.94
2018-09-22T02:27:03.896Z,11.94
2018-09-22T02:27:37.428Z,12.00
2018-09-22T02:28:10.975Z,12.00
2018-09-22T02:28:44.490Z,12.00
2018-09-22T02:29:17.972Z,12.00
2018-09-22T02:29:51.468Z,11.94
2018-09-22T02:30:24.974Z,11.75
2018-09-22T02:30:58.517Z,11.63
2018-09-22T02:31:32.060Z,11.44
2018-09-22T02:32:05.685Z,11.31
2018-09-22T02:32:39.185Z,11.25
2018-09-22T02:33:12.736Z,11.12
2018-09-22T02:33:46.270Z,11.06
2018-09-22T02:34:19.864Z,11.06
2018-09-22T02:34:53.365Z,11.00
2018-09-22T02:35:26.936Z,10.94
2018-09-22T02:36:00.448Z,10.94
2018-09-22T02:36:33.985Z,10.88
2018-09-22T02:37:07.523Z,10.88
2018-09-22T02:37:41.009Z,10.81
2018-09-22T02:38:14.506Z,10.81
2018-09-22T02:38:47.997Z,10.81
2018-09-22T02:39:21.497Z,10.81
2018-09-22T02:39:55.029Z,10.81
2018-09-22T02:40:28.550Z,10.81
2018-09-22T02:41:02.057Z,10.81
2018-09-22T02:41:35.774Z,10.81
2018-09-22T02:42:09.341Z,10.88
2018-09-22T02:42:42.842Z,10.88
2018-09-22T02:43:16.330Z,10.88
2018-09-22T02:43:49.835Z,10.88
2018-09-22T02:44:23.291Z,10.88
2018-09-22T02:44:56.783Z,10.88
2018-09-22T02:45:30.268Z,10.88
2018-09-22T02:46:03.841Z,10.94
2018-09-22T02:46:37.355Z,11.00
2018-09-22T02:47:10.845Z,11.00
2018-09-22T02:47:44.344Z,11.06
2018-09-22T02:48:17.869Z,11.06
2018-09-22T02:48:51.436Z,11.06
2018-09-22T02:49:24.963Z,11.06
2018-09-22T02:49:58.499Z,11.06
2018-09-22T02:50:32.021Z,11.06
2018-09-22T02:51:06.291Z,11.06
2018-09-22T02:51:39.796Z,11.06
2018-09-22T02:52:13.309Z,11.12
2018-09-22T02:52:46.861Z,11.12
2018-09-22T02:53:20.409Z,11.12
2018-09-22T02:53:53.925Z,11.12
2018-09-22T02:54:27.443Z,11.12
2018-09-22T02:55:00.998Z,11.12
2018-09-22T02:55:34.511Z,11.12
2018-09-22T02:56:08.053Z,11.12
2018-09-22T02:56:41.581Z,11.12
2018-09-22T02:57:15.083Z,11.12
2018-09-22T02:57:48.582Z,11.12
2018-09-22T02:58:22.103Z,11.12
2018-09-22T02:58:55.593Z,11.12
2018-09-22T02:59:29.132Z,11.12
2018-09-22T03:00:02.705Z,11.19
2018-09-22T03:00:36.219Z,11.19
2018-09-22T03:01:10.021Z,11.19
2018-09-22T03:01:43.544Z,11.19
2018-09-22T03:02:17.053Z,11.19
2018-09-22T03:02:51.327Z,11.19
2018-09-22T03:03:24.829Z,11.19
2018-09-22T03:03:58.319Z,11.19
2018-09-22T03:04:31.850Z,11.19
2018-09-22T03:05:05.477Z,11.19
2018-09-22T03:05:38.990Z,11.19
2018-09-22T03:06:12.499Z,11.19
2018-09-22T03:06:46.116Z,11.25
2018-09-22T03:07:19.597Z,11.25
2018-09-22T03:07:53.069Z,11.31
2018-09-22T03:08:26.597Z,11.31
2018-09-22T03:09:00.119Z,11.31
2018-09-22T03:09:33.633Z,11.31
2018-09-22T03:10:07.232Z,11.31
2018-09-22T03:10:40.751Z,11.38
2018-09-22T03:11:14.261Z,11.38
2018-09-22T03:11:47.849Z,11.38
2018-09-22T03:12:21.359Z,11.38
2018-09-22T03:12:54.858Z,11.31
2018-09-22T03:13:28.368Z,11.31
2018-09-22T03:14:01.957Z,11.31
2018-09-22T03:14:35.474Z,11.31
2018-09-22T03:15:09.305Z,11.31
2018-09-22T03:15:42.573Z,11.31
2018-09-22T03:16:16.045Z,11.31
2018-09-22T03:16:49.589Z,11.31
2018-09-22T03:17:23.141Z,11.31
2018-09-22T03:17:56.708Z,11.31
2018-09-22T03:18:30.201Z,11.31
2018-09-22T03:22:11.415Z,11.31
2018-09-22T03:22:44.921Z,11.31
2018-09-22T03:23:18.488Z,11.31
2018-09-22T03:23:51.968Z,11.31
2018-09-22T03:24:25.461Z,11.25
2018-09-22T03:24:58.984Z,11.25
2018-09-22T03:25:32.486Z,11.25
2018-09-22T03:26:06.517Z,11.25
2018-09-22T03:26:40.029Z,11.25
2018-09-22T03:27:13.535Z,11.25
2018-09-22T03:27:47.041Z,11.25
2018-09-22T03:28:20.532Z,11.25
2018-09-22T03:28:54.061Z,11.25
2018-09-22T03:29:27.565Z,11.25
2018-09-22T03:30:01.093Z,11.25
2018-09-22T03:30:34.640Z,11.25
2018-09-22T03:31:08.860Z,11.31
2018-09-22T03:31:42.381Z,11.31
2018-09-22T03:32:15.968Z,11.38
2018-09-22T03:32:49.471Z,11.38
2018-09-22T03:33:22.982Z,11.44
2018-09-22T03:33:56.582Z,11.50
2018-09-22T03:34:30.152Z,11.50
2018-09-22T03:35:03.684Z,11.50
2018-09-22T03:35:37.182Z,11.50
2018-09-22T03:36:10.656Z,11.50
2018-09-22T03:36:44.152Z,11.50
2018-09-22T03:37:17.646Z,11.50
2018-09-22T03:37:51.132Z,11.50
2018-09-22T03:38:24.656Z,11.50
2018-09-22T03:38:58.200Z,11.50
2018-09-22T03:39:31.730Z,11.50
2018-09-22T03:40:05.486Z,11.50
2018-09-22T03:40:39.019Z,11.50
2018-09-22T03:41:12.497Z,11.56
2018-09-22T03:41:46.019Z,11.56
2018-09-22T03:42:19.562Z,11.56
2018-09-22T03:42:53.088Z,11.56
2018-09-22T03:43:26.600Z,11.50
2018-09-22T03:44:00.110Z,11.50
2018-09-22T03:44:33.640Z,11.56
2018-09-22T03:45:07.220Z,11.50
2018-09-22T03:45:40.729Z,11.50
2018-09-22T03:46:14.298Z,11.50
2018-09-22T03:46:47.806Z,11.50
2018-09-22T03:47:21.347Z,11.50
2018-09-22T03:47:54.832Z,11.44
2018-09-22T03:48:28.333Z,11.44
2018-09-22T03:49:01.872Z,11.44
2018-09-22T03:49:35.472Z,11.50
2018-09-22T03:50:08.982Z,11.50
2018-09-22T03:50:42.524Z,11.50
2018-09-22T03:51:16.032Z,11.50
2018-09-22T03:51:49.556Z,11.50
2018-09-22T03:52:23.083Z,11.50
2018-09-22T03:52:56.604Z,11.56
2018-09-22T03:53:30.108Z,11.56
2018-09-22T03:54:03.604Z,11.50
2018-09-22T03:54:37.104Z,11.50
2018-09-22T03:55:10.615Z,11.56
2018-09-22T03:55:44.098Z,11.50
2018-09-22T03:56:17.637Z,11.56
2018-09-22T03:56:51.156Z,11.50
2018-09-22T03:57:24.694Z,11.50
2018-09-22T03:57:58.168Z,11.50
2018-09-22T03:58:31.676Z,11.50
2018-09-22T03:59:05.296Z,11.50
2018-09-22T03:59:38.836Z,11.50
2018-09-22T04:00:12.349Z,11.50
2018-09-22T04:00:45.845Z,11.50
2018-09-22T04:01:19.342Z,11.50
2018-09-22T04:01:53.022Z,11.50
2018-09-22T04:02:26.555Z,11.50
2018-09-22T04:03:00.072Z,11.50
2018-09-22T04:03:33.566Z,11.50
2018-09-22T04:04:07.101Z,11.50
2018-09-22T04:04:40.588Z,11.50
2018-09-22T04:05:14.115Z,11.44
2018-09-22T04:05:47.663Z,11.44
2018-09-22T04:06:21.259Z,11.44
2018-09-22T04:06:58.487Z,11.44
2018-09-22T04:07:32.004Z,11.44
2018-09-22T04:08:05.585Z,11.44
2018-09-22T04:08:39.119Z,11.44
2018-09-22T04:09:12.634Z,11.38
2018-09-22T04:09:46.160Z,11.38
2018-09-22T04:10:19.715Z,11.38
2018-09-22T04:10:53.264Z,11.38
2018-09-22T04:11:26.767Z,11.38
2018-09-22T04:12:00.270Z,11.38
2018-09-22T04:12:33.804Z,11.38
2018-09-22T04:13:07.340Z,11.44
2018-09-22T04:13:40.841Z,11.38
2018-09-22T04:14:14.334Z,11.44
2018-09-22T04:14:47.836Z,11.44
2018-09-22T04:15:21.354Z,11.44
2018-09-22T04:15:54.844Z,11.44
2018-09-22T04:16:28.364Z,11.44
2018-09-22T04:17:01.971Z,11.44
2018-09-22T04:17:35.478Z,11.44
2018-09-22T04:18:09.012Z,11.44
2018-09-22T04:18:42.501Z,11.44
2018-09-22T04:19:15.982Z,11.38
2018-09-22T04:19:49.498Z,11.38
2018-09-22T04:20:23.056Z,11.38
2018-09-22T04:20:56.574Z,11.44
2018-09-22T04:21:30.100Z,11.44
2018-09-22T04:22:03.590Z,11.44
2018-09-22T04:22:37.110Z,11.44
2018-09-22T04:23:10.604Z,11.44
2018-09-22T04:23:44.106Z,11.44
2018-09-22T04:24:18.931Z,11.44
2018-09-22T04:24:52.447Z,11.44
2018-09-22T04:25:25.991Z,11.44
2018-09-22T04:25:59.512Z,11.38
2018-09-22T04:26:33.008Z,11.38
2018-09-22T04:27:06.594Z,11.38
2018-09-22T04:27:40.230Z,11.38
2018-09-22T04:28:13.736Z,11.38
2018-09-22T04:28:47.262Z,11.38
2018-09-22T04:29:21.198Z,11.38
2018-09-22T04:29:54.731Z,11.38
2018-09-22T04:30:28.264Z,11.38
2018-09-22T04:31:01.809Z,11.44
2018-09-22T04:31:35.334Z,11.44
2018-09-22T04:32:08.812Z,11.44
2018-09-22T04:32:42.337Z,11.44
2018-09-22T04:33:15.887Z,11.50
2018-09-22T04:33:49.380Z,11.56
2018-09-22T04:34:23.159Z,11.63
2018-09-22T04:34:56.686Z,11.63
2018-09-22T04:35:30.198Z,11.63
2018-09-22T04:36:03.724Z,11.69
2018-09-22T04:36:37.231Z,11.69
2018-09-22T04:37:10.768Z,11.69
2018-09-22T04:37:44.526Z,11.69
2018-09-22T04:38:18.041Z,11.69
2018-09-22T04:38:51.564Z,11.69
2018-09-22T04:39:25.096Z,11.69
2018-09-22T04:39:58.604Z,11.75
2018-09-22T04:40:32.152Z,11.75
2018-09-22T04:41:06.124Z,11.81
2018-09-22T04:41:41.239Z,11.81
2018-09-22T04:42:14.756Z,11.81
2018-09-22T04:42:48.294Z,11.88
2018-09-22T04:43:21.836Z,11.88
2018-09-22T04:43:55.355Z,11.88
2018-09-22T04:44:28.887Z,11.81
2018-09-22T04:45:02.447Z,11.81
2018-09-22T04:45:35.956Z,11.75
2018-09-22T04:46:09.440Z,11.75
2018-09-22T04:46:42.946Z,11.75
2018-09-22T04:47:16.446Z,11.75
2018-09-22T04:47:49.976Z,11.75
2018-09-22T04:48:23.497Z,11.75
2018-09-22T04:48:57.021Z,11.69
2018-09-22T04:49:30.516Z,11.69
2018-09-22T04:50:04.104Z,11.69
2018-09-22T04:50:37.616Z,11.75
2018-09-22T04:51:11.148Z,11.75
2018-09-22T04:51:44.672Z,11.75
2018-09-22T04:52:18.161Z,11.75
2018-09-22T04:52:51.700Z,11.75
2018-09-22T04:53:25.201Z,11.75
2018-09-22T04:54:49.861Z,11.75
2018-09-22T04:55:23.374Z,11.75
2018-09-22T04:55:56.880Z,11.81
2018-09-22T04:56:30.481Z,11.81
2018-09-22T04:57:04.003Z,11.81
2018-09-22T04:57:37.513Z,11.81
2018-09-22T04:58:11.020Z,11.81
2018-09-22T04:58:44.531Z,11.81
2018-09-22T04:59:18.030Z,11.75
2018-09-22T04:59:51.585Z,11.75
2018-09-22T05:00:25.112Z,11.69
2018-09-22T05:00:58.648Z,11.69
2018-09-22T05:01:32.173Z,11.63
2018-09-22T05:02:05.795Z,11.63
2018-09-22T05:02:39.320Z,11.63
2018-09-22T05:03:12.925Z,11.63
2018-09-22T05:03:46.455Z,11.63
2018-09-22T05:04:19.957Z,11.63
2018-09-22T05:04:53.492Z,11.63
2018-09-22T05:05:27.015Z,11.63
2018-09-22T05:06:00.532Z,11.63
2018-09-22T05:06:34.060Z,11.69
2018-09-22T05:07:07.723Z,11.69
2018-09-22T05:07:41.237Z,11.69
2018-09-22T05:08:14.756Z,11.69
2018-09-22T05:08:48.295Z,11.75
2018-09-22T05:09:21.809Z,11.75
2018-09-22T05:09:55.285Z,11.75
2018-09-22T05:10:28.803Z,11.75
2018-09-22T05:11:02.421Z,11.75
2018-09-22T05:11:35.959Z,11.75
2018-09-22T05:12:09.519Z,11.75
2018-09-22T05:12:43.007Z,11.75
2018-09-22T05:13:16.534Z,11.75
2018-09-22T05:13:50.038Z,11.75
2018-09-22T05:14:23.577Z,11.75
2018-09-22T05:14:57.113Z,11.75
2018-09-22T05:15:30.641Z,11.75
2018-09-22T05:16:04.196Z,11.69
2018-09-22T05:16:37.685Z,11.69
2018-09-22T05:17:11.221Z,11.69
2018-09-22T05:17:44.757Z,11.75
2018-09-22T05:18:18.282Z,11.75
2018-09-22T05:18:51.821Z,11.75
2018-09-22T05:19:25.569Z,11.81
2018-09-22T05:19:59.108Z,11.81
2018-09-22T05:20:32.603Z,11.81
2018-09-22T05:21:06.509Z,11.81
2018-09-22T05:21:40.037Z,11.81
2018-09-22T05:22:13.666Z,11.88
2018-09-22T05:22:47.219Z,11.88
2018-09-22T05:23:20.777Z,11.88
2018-09-22T05:23:54.290Z,11.88
2018-09-22T05:24:27.785Z,11.88
2018-09-22T05:25:01.309Z,11.88
2018-09-22T05:25:34.830Z,11.88
2018-09-22T05:26:08.375Z,11.88
2018-09-22T05:26:41.935Z,11.88
2018-09-22T05:27:15.521Z,11.88
2018-09-22T05:27:49.017Z,11.81
2018-09-22T05:28:22.606Z,11.81
2018-09-22T05:28:56.135Z,11.81
2018-09-22T05:29:29.642Z,11.75
2018-09-22T05:30:03.167Z,11.75
2018-09-22T05:30:36.681Z,11.75
2018-09-22T05:31:10.249Z,11.69
2018-09-22T05:31:43.759Z,11.75
2018-09-22T05:32:17.332Z,11.69
2018-09-22T05:32:50.840Z,11.69
2018-09-22T05:33:24.415Z,11.69
2018-09-22T05:33:57.947Z,11.69
2018-09-22T05:34:31.443Z,11.69
2018-09-22T05:35:04.972Z,11.63
2018-09-22T05:35:38.464Z,11.63
2018-09-22T05:36:11.955Z,11.63
2018-09-22T05:36:45.455Z,11.63
2018-09-22T05:37:18.985Z,11.69
2018-09-22T05:37:52.479Z,11.69
2018-09-22T05:38:26.063Z,11.75
2018-09-22T05:38:59.564Z,11.75
2018-09-22T05:39:33.120Z,11.81
2018-09-22T05:40:06.991Z,11.81
2018-09-22T05:40:40.507Z,11.81
2018-09-22T05:41:14.005Z,11.81
2018-09-22T05:41:47.553Z,11.75
2018-09-22T05:42:21.043Z,11.75
2018-09-22T05:42:54.553Z,11.75
2018-09-22T05:43:28.055Z,11.75
2018-09-22T05:44:01.569Z,11.75
2018-09-22T05:44:35.089Z,11.75
2018-09-22T05:45:08.645Z,11.75
2018-09-22T05:45:42.189Z,11.75
2018-09-22T05:46:15.710Z,11.75
2018-09-22T05:46:49.225Z,11.75
2018-09-22T05:47:22.705Z,11.75
2018-09-22T05:47:56.215Z,11.75
2018-09-22T05:48:29.715Z,11.75
2018-09-22T05:49:03.527Z,11.75
2018-09-22T05:49:37.039Z,11.75
2018-09-22T05:50:10.546Z,11.75
2018-09-22T05:50:44.091Z,11.81
2018-09-22T05:51:17.601Z,11.81
2018-09-22T05:51:51.158Z,11.81
2018-09-22T05:52:24.656Z,11.81
2018-09-22T05:52:58.119Z,11.81
2018-09-22T05:53:31.615Z,11.81
2018-09-22T05:54:05.169Z,11.81
2018-09-22T05:54:38.650Z,11.81
2018-09-22T05:55:12.203Z,11.88
2018-09-22T05:55:45.709Z,11.94
2018-09-22T05:56:19.199Z,12.00
2018-09-22T05:56:52.714Z,12.00
2018-09-22T05:57:26.235Z,12.00
2018-09-22T05:57:59.809Z,12.06
2018-09-22T05:58:33.350Z,12.00
2018-09-22T05:59:06.919Z,12.00
2018-09-22T05:59:40.416Z,12.00
2018-09-22T06:00:13.921Z,12.00
2018-09-22T06:00:47.429Z,12.00
2018-09-22T06:01:20.955Z,12.00
2018-09-22T06:01:54.452Z,12.00
2018-09-22T06:02:27.961Z,12.00
2018-09-22T06:03:01.527Z,12.00
2018-09-22T06:03:35.085Z,12.00
2018-09-22T06:04:08.574Z,12.00
2018-09-22T06:04:42.091Z,12.00
2018-09-22T06:05:15.619Z,11.94
2018-09-22T06:05:49.130Z,11.94
2018-09-22T06:06:22.692Z,11.94
2018-09-22T06:06:56.209Z,11.94
2018-09-22T06:07:29.755Z,12.00
2018-09-22T06:08:03.350Z,12.06
2018-09-22T06:08:36.880Z,12.13
2018-09-22T06:09:10.439Z,12.13
2018-09-22T06:09:44.028Z,12.13
2018-09-22T06:10:17.518Z,12.19
2018-09-22T06:10:51.049Z,12.13
2018-09-22T06:11:24.600Z,12.13
2018-09-22T06:11:58.107Z,12.13
2018-09-22T06:12:31.643Z,12.13
2018-09-22T06:13:05.343Z,12.13
2018-09-22T06:13:38.833Z,12.13
2018-09-22T06:14:12.348Z,12.13
2018-09-22T06:14:45.842Z,12.13
2018-09-22T06:15:19.361Z,12.13
2018-09-22T06:15:52.889Z,12.13
2018-09-22T06:16:26.419Z,12.13
2018-09-22T06:16:59.897Z,12.13
2018-09-22T06:17:33.386Z,12.19
2018-09-22T06:18:06.870Z,12.19
2018-09-22T06:18:40.420Z,12.25
2018-09-22T06:19:13.959Z,12.25
2018-09-22T06:19:47.503Z,12.25
2018-09-22T06:20:21.057Z,12.19
2018-09-22T06:20:54.564Z,12.19
2018-09-22T06:21:28.067Z,12.19
2018-09-22T06:22:01.617Z,12.19
2018-09-22T06:22:35.141Z,12.25
2018-09-22T06:23:08.696Z,12.25
2018-09-22T06:23:42.214Z,12.25
2018-09-22T06:24:15.735Z,12.31
2018-09-22T06:24:49.336Z,12.31
2018-09-22T06:25:22.976Z,12.31
2018-09-22T06:25:56.514Z,12.31
2018-09-22T06:26:30.043Z,12.31
2018-09-22T06:27:03.564Z,12.37
2018-09-22T06:27:37.134Z,12.37
2018-09-22T06:28:10.642Z,12.37
2018-09-22T06:28:44.215Z,12.37
2018-09-22T06:29:17.677Z,12.31
2018-09-22T06:29:51.176Z,12.31
2018-09-22T06:30:24.723Z,12.31
2018-09-22T06:30:58.255Z,12.31
2018-09-22T06:31:31.767Z,12.31
2018-09-22T06:32:05.624Z,12.31
2018-09-22T06:32:39.142Z,12.31
2018-09-22T06:33:13.322Z,12.31
2018-09-22T06:33:46.844Z,12.31
2018-09-22T06:34:20.354Z,12.31
2018-09-22T06:34:53.898Z,12.31
2018-09-22T06:35:27.404Z,12.37
2018-09-22T06:36:00.898Z,12.37
2018-09-22T06:36:34.414Z,12.37
2018-09-22T06:37:07.900Z,12.37
2018-09-22T06:37:41.428Z,12.44
2018-09-22T06:38:16.109Z,12.44
2018-09-22T06:38:49.890Z,12.44
2018-09-22T06:39:23.414Z,12.44
2018-09-22T06:39:56.962Z,12.50
2018-09-22T06:40:30.456Z,12.50
2018-09-22T06:41:03.947Z,12.50
2018-09-22T06:41:37.456Z,12.56
2018-09-22T06:42:11.013Z,12.56
2018-09-22T06:42:44.549Z,12.63
2018-09-22T06:43:18.076Z,12.63
2018-09-22T06:43:51.556Z,12.63
2018-09-22T06:44:25.046Z,12.63
2018-09-22T06:44:58.548Z,12.63
2018-09-22T06:45:32.028Z,12.63
2018-09-22T06:46:05.639Z,12.63
2018-09-22T06:46:39.107Z,12.63
2018-09-22T06:47:12.678Z,12.69
2018-09-22T06:47:46.182Z,12.69
2018-09-22T06:48:19.748Z,12.69
2018-09-22T06:48:53.248Z,12.69
2018-09-22T06:49:26.778Z,12.75
2018-09-22T06:50:00.480Z,12.75
2018-09-22T06:50:34.010Z,12.75
2018-09-22T06:51:07.504Z,12.75
2018-09-22T06:51:41.018Z,12.75
2018-09-22T06:52:14.550Z,12.75
2018-09-22T06:52:55.437Z,12.75
2018-09-22T06:53:28.950Z,12.75
2018-09-22T06:54:02.503Z,12.75
2018-09-22T06:54:36.064Z,12.75
2018-09-22T06:55:09.713Z,12.75
2018-09-22T06:55:43.243Z,12.75
2018-09-22T06:56:16.760Z,12.75
2018-09-22T06:56:50.285Z,12.75
2018-09-22T06:57:23.796Z,12.75
2018-09-22T06:57:57.308Z,12.75
2018-09-22T06:58:30.838Z,12.75
2018-09-22T06:59:04.424Z,12.81
2018-09-22T06:59:37.937Z,12.88
2018-09-22T07:00:11.470Z,12.88
2018-09-22T07:00:45.050Z,12.94
2018-09-22T07:01:18.578Z,12.94
2018-09-22T07:01:52.117Z,12.94
2018-09-22T07:02:25.609Z,12.94
2018-09-22T07:02:59.135Z,13.00
2018-09-22T07:03:32.626Z,13.00
2018-09-22T07:04:06.197Z,13.00
2018-09-22T07:04:40.092Z,13.00
2018-09-22T07:05:13.598Z,13.06
2018-09-22T07:05:47.144Z,13.06
2018-09-22T07:06:21.009Z,13.13
2018-09-22T07:06:54.585Z,13.13
2018-09-22T07:07:28.096Z,13.19
2018-09-22T07:08:01.623Z,13.25
2018-09-22T07:08:35.158Z,13.31
2018-09-22T07:09:08.694Z,13.44
2018-09-22T07:09:42.218Z,13.50
2018-09-22T07:10:15.744Z,13.56
2018-09-22T07:10:49.265Z,13.62
2018-09-22T07:11:22.788Z,13.62
2018-09-22T07:11:56.331Z,13.62
2018-09-22T07:12:30.018Z,13.62
2018-09-22T07:13:03.576Z,13.56
2018-09-22T07:13:37.159Z,13.56
2018-09-22T07:14:10.646Z,13.50
2018-09-22T07:14:44.146Z,13.50
2018-09-22T07:15:17.720Z,13.50
2018-09-22T07:15:51.254Z,13.44